Time;durP1;ratioP1;P1;durP2;ratioP2;P2;SDS_P1;SDS_P2;PMS_P1;PMS_P2;Temp;Humidity;BMP_temperature;BMP_pressure;BME280_temperature;BME280_humidity;BME280_pressure;Samples;Min_cycle;Max_cycle;Signal;HPM_P1;HPM_P2
2023/06/21 00:00:41;;;;;;;9.05;7.20;;;19.40;99.90;;;;;;5039452;28;20040;-80
2023/06/21 00:03:08;;;;;;;10.60;7.13;;;19.50;99.90;;;;;;5039627;28;20909;-80
2023/06/21 00:05:38;;;;;;;10.18;7.38;;;19.50;99.90;;;;;;5072405;28;20052;-80
2023/06/21 00:08:05;;;;;;;11.85;7.25;;;19.40;99.90;;;;;;5040148;28;20416;-80
2023/06/21 00:10:32;;;;;;;9.70;7.43;;;19.40;99.90;;;;;;5055539;28;20045;-80
2023/06/21 00:12:59;;;;;;;11.68;8.05;;;19.40;99.90;;;;;;5072200;28;20493;-80
2023/06/21 00:15:26;;;;;;;12.52;9.13;;;19.40;99.90;;;;;;5056090;28;20051;-80
2023/06/21 00:17:53;;;;;;;12.15;8.98;;;19.40;99.90;;;;;;5055887;28;20124;-80
2023/06/21 00:20:20;;;;;;;14.10;8.88;;;19.40;99.90;;;;;;5071710;28;20120;-80
2023/06/21 00:22:47;;;;;;;14.85;9.75;;;19.40;99.90;;;;;;5056265;28;20404;-80
2023/06/21 00:25:17;;;;;;;17.00;10.52;;;19.40;99.90;;;;;;5043299;28;20127;-80
2023/06/21 00:27:44;;;;;;;15.30;10.38;;;19.40;99.90;;;;;;5075914;28;20089;-80
2023/06/21 00:30:11;;;;;;;13.90;10.98;;;19.40;99.90;;;;;;5059182;28;20420;-80
2023/06/21 00:32:40;;;;;;;17.58;10.77;;;19.40;99.90;;;;;;5073460;28;20049;-80
2023/06/21 00:35:07;;;;;;;17.25;11.35;;;19.30;99.90;;;;;;5059846;28;20044;-80
2023/06/21 00:37:37;;;;;;;14.93;11.52;;;19.40;99.90;;;;;;5059837;28;20047;-80
2023/06/21 00:40:10;;;;;;;16.98;12.45;;;19.40;99.90;;;;;;5060098;28;20041;-80
2023/06/21 00:42:36;;;;;;;19.10;12.52;;;19.30;99.90;;;;;;5076059;28;20048;-80
2023/06/21 00:45:05;;;;;;;17.35;12.25;;;19.40;99.90;;;;;;5058683;28;20041;-80
2023/06/21 00:47:32;;;;;;;17.45;13.13;;;19.40;99.90;;;;;;5075708;28;20033;-80
2023/06/21 00:49:59;;;;;;;21.05;12.85;;;19.40;99.90;;;;;;5075254;28;20044;-80
2023/06/21 00:52:28;;;;;;;19.95;13.98;;;19.40;99.90;;;;;;5042850;28;20543;-80
2023/06/21 00:58:39;;;;;;;20.20;12.95;;;19.40;99.90;;;;;;5109639;28;20192;-80
2023/06/21 01:01:06;;;;;;;18.73;14.45;;;19.40;99.90;;;;;;5058791;28;20044;-80
2023/06/21 01:03:33;;;;;;;19.30;13.88;;;19.40;99.90;;;;;;5042149;28;20041;-80
2023/06/21 01:05:59;;;;;;;20.38;14.02;;;19.40;99.90;;;;;;5058650;28;20055;-80
2023/06/21 01:08:42;;;;;;;20.48;13.65;;;19.40;99.90;;;;;;5075498;28;20110;-80
2023/06/21 01:11:26;;;;;;;21.67;14.05;;;19.40;99.90;;;;;;5075002;28;20760;-80
2023/06/21 01:14:18;;;;;;;20.33;14.82;;;19.40;99.90;;;;;;5074831;28;20101;-81
2023/06/21 01:16:49;;;;;;;24.88;14.57;;;19.40;99.90;;;;;;5074856;28;20037;-80
2023/06/21 01:19:28;;;;;;;19.80;14.38;;;19.40;99.90;;;;;;5074980;28;20041;-80
2023/06/21 01:21:57;;;;;;;18.60;13.65;;;19.40;99.90;;;;;;5075303;28;20082;-80
2023/06/21 01:24:31;;;;;;;21.92;14.32;;;19.40;99.90;;;;;;5075665;28;20036;-80
2023/06/21 01:27:09;;;;;;;18.25;13.85;;;19.40;99.90;;;;;;5075252;28;20048;-80
2023/06/21 01:29:39;;;;;;;17.77;14.25;;;19.40;99.90;;;;;;5074617;28;20040;-80
2023/06/21 01:32:10;;;;;;;25.10;14.52;;;19.40;99.90;;;;;;5074541;28;20040;-80
2023/06/21 01:34:37;;;;;;;19.02;14.45;;;19.40;99.90;;;;;;5073163;28;20493;-80
2023/06/21 01:37:06;;;;;;;19.40;14.90;;;19.40;99.90;;;;;;5054226;28;20037;-80
2023/06/21 01:39:33;;;;;;;20.42;14.48;;;19.30;99.90;;;;;;5054356;28;20029;-80
2023/06/21 01:41:59;;;;;;;19.23;14.68;;;19.40;99.90;;;;;;5074425;28;20119;-80
2023/06/21 01:44:27;;;;;;;19.17;14.68;;;19.40;99.90;;;;;;5074222;28;20532;-80
2023/06/21 01:46:55;;;;;;;25.88;14.82;;;19.40;99.90;;;;;;5057584;28;20484;-80
2023/06/21 01:49:23;;;;;;;20.27;15.15;;;19.40;99.90;;;;;;5074109;28;20493;-80
2023/06/21 01:51:51;;;;;;;26.27;16.00;;;19.30;99.90;;;;;;5057438;28;20558;-80
2023/06/21 01:54:20;;;;;;;25.05;14.57;;;19.30;99.90;;;;;;5057708;28;20048;-80
2023/06/21 01:56:49;;;;;;;19.58;14.90;;;19.30;99.90;;;;;;5057697;28;20544;-80
2023/06/21 01:59:18;;;;;;;20.08;13.75;;;19.40;99.90;;;;;;5073971;28;20041;-80
2023/06/21 02:01:50;;;;;;;21.13;15.00;;;19.30;99.90;;;;;;5073680;28;20040;-80
2023/06/21 02:04:18;;;;;;;21.05;15.00;;;19.30;99.90;;;;;;5058183;28;20098;-80
2023/06/21 02:06:48;;;;;;;19.77;14.20;;;19.30;99.90;;;;;;5073458;28;20416;-80
2023/06/21 02:09:14;;;;;;;20.20;13.95;;;19.30;99.90;;;;;;5057684;28;20051;-80
2023/06/21 02:11:42;;;;;;;20.75;13.98;;;19.20;99.90;;;;;;5057424;28;20044;-80
2023/06/21 02:14:10;;;;;;;22.27;14.32;;;19.30;99.90;;;;;;5073884;28;20596;-80
2023/06/21 02:16:36;;;;;;;21.02;14.30;;;19.20;99.90;;;;;;5056863;28;20561;-80
2023/06/21 02:19:03;;;;;;;20.33;13.63;;;19.20;99.90;;;;;;5057105;28;20119;-80
2023/06/21 02:21:30;;;;;;;20.27;14.57;;;19.20;99.90;;;;;;5056928;28;20496;-80
2023/06/21 02:23:57;;;;;;;19.48;13.48;;;19.20;99.90;;;;;;5057071;28;20299;-80
2023/06/21 02:26:24;;;;;;;18.73;13.85;;;19.20;99.90;;;;;;5040788;28;20048;-80
2023/06/21 02:28:50;;;;;;;17.88;13.93;;;19.30;99.90;;;;;;5073276;28;20496;-80
2023/06/21 02:31:17;;;;;;;19.77;13.40;;;19.20;99.90;;;;;;5057263;28;20040;-79
2023/06/21 02:33:48;;;;;;;17.30;13.07;;;19.20;99.90;;;;;;5029896;28;20114;-80
2023/06/21 02:36:15;;;;;;;18.30;13.30;;;19.20;99.90;;;;;;5022521;28;20045;-80
2023/06/21 02:38:42;;;;;;;17.75;13.77;;;19.20;99.90;;;;;;5037159;28;20037;-80
2023/06/21 02:41:09;;;;;;;20.25;14.38;;;19.10;99.90;;;;;;5053397;28;20033;-80
2023/06/21 02:43:36;;;;;;;19.88;14.10;;;19.20;99.90;;;;;;5020634;28;20405;-80
2023/06/21 02:46:03;;;;;;;20.40;12.82;;;19.10;99.90;;;;;;5020381;28;20041;-80
2023/06/21 02:48:30;;;;;;;19.45;13.98;;;19.10;99.90;;;;;;5053197;28;20416;-80
2023/06/21 02:50:57;;;;;;;19.73;14.60;;;19.10;99.90;;;;;;5020810;28;20060;-81
2023/06/21 02:53:23;;;;;;;18.42;13.65;;;19.10;99.90;;;;;;5020766;28;20045;-81
2023/06/21 02:55:50;;;;;;;19.95;14.70;;;19.10;99.90;;;;;;5020412;28;20124;-81
2023/06/21 02:58:17;;;;;;;19.73;15.10;;;19.00;99.90;;;;;;5053106;28;20037;-81
2023/06/21 03:00:43;;;;;;;19.52;14.85;;;19.00;99.90;;;;;;5020305;28;20072;-81
2023/06/21 03:03:10;;;;;;;20.38;14.85;;;19.00;99.90;;;;;;5036941;28;20120;-80
2023/06/21 03:05:37;;;;;;;23.77;15.57;;;18.90;99.90;;;;;;5020220;28;20044;-80
2023/06/21 03:08:04;;;;;;;25.90;16.55;;;18.90;99.90;;;;;;5016359;28;20128;-81
2023/06/21 03:10:34;;;;;;;24.35;16.60;;;18.90;99.90;;;;;;5049547;28;20052;-80
2023/06/21 03:13:01;;;;;;;22.30;18.15;;;18.90;99.90;;;;;;5036412;28;20041;-81
2023/06/21 03:15:28;;;;;;;25.45;18.08;;;18.90;99.90;;;;;;5020254;28;20040;-81
2023/06/21 03:17:55;;;;;;;23.58;16.65;;;18.90;99.90;;;;;;5036591;28;20451;-81
2023/06/21 03:20:24;;;;;;;25.00;18.88;;;18.90;99.90;;;;;;5036601;28;20132;-80
2023/06/21 03:22:51;;;;;;;28.88;18.80;;;18.90;99.90;;;;;;5052754;28;20127;-81
2023/06/21 03:25:18;;;;;;;26.52;18.95;;;18.90;99.90;;;;;;5020538;28;20072;-81
2023/06/21 03:27:45;;;;;;;35.30;19.92;;;18.80;99.90;;;;;;5069099;28;20044;-80
2023/06/21 03:30:12;;;;;;;28.98;20.02;;;18.80;99.90;;;;;;5020196;28;20045;-81
2023/06/21 03:32:46;;;;;;;27.30;20.38;;;18.80;99.90;;;;;;5053759;28;20045;-81
2023/06/21 03:35:14;;;;;;;29.88;20.27;;;18.80;99.90;;;;;;5056425;28;20048;-81
2023/06/21 03:37:41;;;;;;;30.10;21.13;;;18.80;99.90;;;;;;5072520;28;20516;-80
2023/06/21 03:40:13;;;;;;;31.48;20.48;;;18.80;99.90;;;;;;5072276;28;20562;-81
2023/06/21 03:42:43;;;;;;;30.58;21.98;;;18.80;99.90;;;;;;5056920;28;20055;-81
2023/06/21 03:45:10;;;;;;;33.92;21.08;;;18.70;99.90;;;;;;5088893;28;20090;-81
2023/06/21 03:47:39;;;;;;;30.88;22.27;;;18.70;99.90;;;;;;5072570;28;20047;-81
2023/06/21 03:50:07;;;;;;;34.35;22.95;;;18.70;99.90;;;;;;5072395;28;20032;-81
2023/06/21 03:52:34;;;;;;;33.72;23.23;;;18.70;99.90;;;;;;5072500;28;20032;-80
2023/06/21 03:55:02;;;;;;;29.90;23.40;;;18.70;99.90;;;;;;5072445;28;20047;-81
2023/06/21 03:57:29;;;;;;;32.22;22.98;;;18.70;99.90;;;;;;5052467;28;20044;-80
2023/06/21 03:59:56;;;;;;;34.65;23.85;;;18.60;99.90;;;;;;5039821;28;20448;-81
2023/06/21 04:02:24;;;;;;;33.92;24.40;;;18.60;99.90;;;;;;5056830;28;20029;-81
2023/06/21 04:04:51;;;;;;;32.08;22.95;;;18.70;99.90;;;;;;5040188;28;20033;-81
2023/06/21 04:07:19;;;;;;;36.67;24.77;;;18.70;99.90;;;;;;5060084;28;20125;-81
2023/06/21 04:09:45;;;;;;;35.42;25.20;;;18.70;99.90;;;;;;5044010;28;20045;-81
2023/06/21 04:12:12;;;;;;;38.88;26.40;;;18.70;99.90;;;;;;5059279;28;20051;-80
2023/06/21 04:14:39;;;;;;;41.50;27.55;;;18.70;99.90;;;;;;5075884;28;20475;-81
2023/06/21 04:17:06;;;;;;;39.63;27.42;;;18.70;99.90;;;;;;5042849;28;20052;-81
2023/06/21 04:19:32;;;;;;;40.55;26.70;;;18.70;99.90;;;;;;5043341;28;20032;-81
2023/06/21 04:21:59;;;;;;;42.58;29.38;;;18.70;99.90;;;;;;5059580;28;20113;-80
2023/06/21 04:24:26;;;;;;;44.72;29.15;;;18.70;99.90;;;;;;5059310;28;20041;-81
2023/06/21 04:26:53;;;;;;;42.72;28.90;;;18.70;99.90;;;;;;5043352;28;20091;-81
2023/06/21 04:29:20;;;;;;;44.80;28.30;;;18.80;99.90;;;;;;5071772;28;20041;-81
2023/06/21 04:31:47;;;;;;;47.75;29.77;;;18.70;99.90;;;;;;5039374;28;20123;-81
2023/06/21 04:34:14;;;;;;;45.13;29.60;;;18.70;99.90;;;;;;5039018;28;20128;-81
2023/06/21 04:36:40;;;;;;;43.67;29.55;;;18.80;99.90;;;;;;5039437;28;20049;-80
2023/06/21 04:39:07;;;;;;;47.05;31.92;;;18.80;99.90;;;;;;5049464;28;20579;-81
2023/06/21 04:41:36;;;;;;;44.20;29.30;;;18.80;99.90;;;;;;5042591;28;20477;-81
2023/06/21 04:44:02;;;;;;;47.03;29.63;;;18.80;99.90;;;;;;5059509;28;20033;-81
2023/06/21 04:46:29;;;;;;;43.85;30.42;;;18.80;99.90;;;;;;5075543;28;20043;-81
2023/06/21 04:48:56;;;;;;;46.22;29.75;;;18.80;99.90;;;;;;5042438;28;20044;-81
2023/06/21 04:51:22;;;;;;;43.53;29.35;;;18.80;99.90;;;;;;5042659;28;20040;-81
2023/06/21 04:53:49;;;;;;;44.88;30.23;;;18.90;99.90;;;;;;5042614;28;20040;-81
2023/06/21 04:56:16;;;;;;;43.20;28.88;;;18.80;99.90;;;;;;5092203;28;20755;-81
2023/06/21 04:58:44;;;;;;;42.72;28.48;;;18.90;99.90;;;;;;5075478;28;20131;-81
2023/06/21 05:01:13;;;;;;;41.10;28.00;;;18.90;99.90;;;;;;5058879;28;20036;-81
2023/06/21 05:03:41;;;;;;;43.38;29.23;;;18.90;99.90;;;;;;5059432;28;20028;-81
2023/06/21 05:06:08;;;;;;;41.63;28.20;;;18.80;99.90;;;;;;5059141;28;20417;-81
2023/06/21 05:08:35;;;;;;;43.53;28.10;;;18.90;99.90;;;;;;5074790;28;20044;-81
2023/06/21 05:11:02;;;;;;;44.03;28.65;;;18.90;99.90;;;;;;5042135;28;20480;-81
2023/06/21 05:13:28;;;;;;;39.92;27.45;;;18.90;99.90;;;;;;5042576;28;20047;-81
2023/06/21 05:15:55;;;;;;;41.65;27.50;;;18.80;99.90;;;;;;5054796;28;20042;-81
2023/06/21 05:18:22;;;;;;;42.47;27.33;;;18.90;99.90;;;;;;5074181;28;20067;-81
2023/06/21 05:20:48;;;;;;;42.50;27.55;;;18.90;99.90;;;;;;5057704;28;20486;-81
2023/06/21 05:23:15;;;;;;;40.80;28.27;;;18.90;99.90;;;;;;5054667;28;20537;-81
2023/06/21 05:25:42;;;;;;;39.00;26.17;;;18.90;99.90;;;;;;5038289;28;20044;-81
2023/06/21 05:28:09;;;;;;;41.90;27.75;;;18.90;99.90;;;;;;5074679;28;20041;-81
2023/06/21 05:30:36;;;;;;;38.45;26.77;;;18.90;99.90;;;;;;5058247;28;20041;-81
2023/06/21 05:33:02;;;;;;;41.67;27.25;;;19.00;99.90;;;;;;5050672;28;20043;-81
2023/06/21 05:35:29;;;;;;;37.00;25.35;;;19.00;99.90;;;;;;5074475;28;20052;-81
2023/06/21 05:37:56;;;;;;;39.00;25.17;;;19.00;99.90;;;;;;5074448;28;20036;-81
2023/06/21 05:40:23;;;;;;;40.90;25.70;;;19.00;99.90;;;;;;5058136;28;20062;-81
2023/06/21 05:42:49;;;;;;;34.13;23.15;;;19.00;99.90;;;;;;5058398;28;20036;-81
2023/06/21 05:45:17;;;;;;;35.33;23.80;;;19.00;99.90;;;;;;5074229;28;20072;-81
2023/06/21 05:47:44;;;;;;;33.88;22.98;;;19.00;99.90;;;;;;5058513;28;20075;-81
2023/06/21 05:50:10;;;;;;;33.90;23.00;;;19.10;99.90;;;;;;5058016;28;20080;-81
2023/06/21 05:52:37;;;;;;;36.60;23.17;;;19.10;99.90;;;;;;5058449;28;20102;-81
2023/06/21 05:55:04;;;;;;;36.72;22.30;;;19.10;99.90;;;;;;5074330;28;20404;-80
2023/06/21 05:57:31;;;;;;;32.65;22.80;;;19.20;99.90;;;;;;5041820;28;20051;-81
2023/06/21 05:59:58;;;;;;;35.28;22.88;;;19.20;99.90;;;;;;5074545;28;20488;-81
2023/06/21 06:02:24;;;;;;;29.42;20.48;;;19.30;99.90;;;;;;5070741;28;20418;-81
2023/06/21 06:04:53;;;;;;;30.05;21.17;;;19.30;99.90;;;;;;5037593;28;20049;-81
2023/06/21 06:07:19;;;;;;;29.73;21.33;;;19.20;99.90;;;;;;5053837;28;20455;-81
2023/06/21 06:09:46;;;;;;;33.03;22.40;;;19.40;99.90;;;;;;5037566;28;20045;-81
2023/06/21 06:12:13;;;;;;;29.98;21.55;;;19.40;99.90;;;;;;5037233;28;20036;-81
2023/06/21 06:14:39;;;;;;;28.00;21.05;;;19.40;99.90;;;;;;5037885;28;20167;-80
2023/06/21 06:17:06;;;;;;;32.80;21.98;;;19.40;99.90;;;;;;5059198;28;20044;-79
2023/06/21 06:19:33;;;;;;;31.30;21.25;;;19.40;99.90;;;;;;5086547;28;20036;-80
2023/06/21 06:21:59;;;;;;;27.15;18.80;;;19.50;99.90;;;;;;5036619;28;20048;-80
2023/06/21 06:24:27;;;;;;;27.48;19.33;;;19.50;99.90;;;;;;5037601;28;20409;-80
2023/06/21 06:26:54;;;;;;;28.17;19.42;;;19.50;99.90;;;;;;5037603;28;20044;-80
2023/06/21 06:29:21;;;;;;;30.52;21.00;;;19.50;99.90;;;;;;5045959;28;20400;-80
2023/06/21 06:31:48;;;;;;;26.52;19.25;;;19.50;99.90;;;;;;5057458;28;20514;-80
2023/06/21 06:34:15;;;;;;;28.23;19.13;;;19.50;99.90;;;;;;5057112;28;20060;-80
2023/06/21 06:36:42;;;;;;;24.05;16.10;;;19.70;99.90;;;;;;5056941;28;20117;-80
2023/06/21 06:39:09;;;;;;;23.88;16.15;;;19.70;99.90;;;;;;5057355;28;20040;-80
2023/06/21 06:41:35;;;;;;;22.80;16.25;;;19.80;99.90;;;;;;5057389;28;20037;-80
2023/06/21 06:44:02;;;;;;;24.17;16.73;;;19.70;99.90;;;;;;5057327;28;20036;-80
2023/06/21 06:46:29;;;;;;;22.20;15.65;;;19.70;99.90;;;;;;5073199;28;20162;-80
2023/06/21 06:48:56;;;;;;;21.48;14.20;;;19.70;99.90;;;;;;5056774;28;20044;-80
2023/06/21 06:51:23;;;;;;;23.05;14.48;;;19.70;99.90;;;;;;5072787;28;20135;-81
2023/06/21 06:53:50;;;;;;;20.08;13.98;;;19.80;99.90;;;;;;5057315;28;20074;-80
2023/06/21 06:56:17;;;;;;;21.50;14.40;;;19.90;99.90;;;;;;5072891;28;20044;-81
2023/06/21 06:58:43;;;;;;;22.73;13.65;;;20.00;99.90;;;;;;5056836;28;20028;-80
2023/06/21 07:01:10;;;;;;;20.70;12.88;;;20.00;99.90;;;;;;5056219;28;20037;-80
2023/06/21 07:03:37;;;;;;;20.05;12.90;;;20.00;99.90;;;;;;5056538;28;20115;-80
2023/06/21 07:06:04;;;;;;;18.30;12.48;;;20.10;99.90;;;;;;5072712;28;20126;-80
2023/06/21 07:08:31;;;;;;;16.38;11.27;;;20.10;99.90;;;;;;5056191;28;20048;-80
2023/06/21 07:10:57;;;;;;;18.30;11.80;;;20.20;99.90;;;;;;5040143;28;20047;-81
2023/06/21 07:13:24;;;;;;;17.50;11.10;;;20.20;99.90;;;;;;5039956;28;20080;-80
2023/06/21 07:15:51;;;;;;;19.50;12.40;;;20.10;99.90;;;;;;5040175;28;20037;-80
2023/06/21 07:18:17;;;;;;;17.77;11.35;;;20.30;99.90;;;;;;5073006;28;20574;-81
2023/06/21 07:20:44;;;;;;;17.77;11.38;;;20.30;99.90;;;;;;5056710;28;20127;-80
2023/06/21 07:23:11;;;;;;;17.48;10.55;;;20.30;99.90;;;;;;5056789;28;20044;-80
2023/06/21 07:25:38;;;;;;;14.27;9.48;;;20.30;99.90;;;;;;5040133;28;20716;-81
2023/06/21 07:28:05;;;;;;;13.15;8.10;;;20.30;99.90;;;;;;5056341;28;20036;-82
2023/06/21 07:30:31;;;;;;;15.50;9.20;;;20.30;99.90;;;;;;5040059;28;20036;-81
2023/06/21 07:32:58;;;;;;;13.20;8.10;;;20.30;99.90;;;;;;5070750;28;20041;-81
2023/06/21 07:35:25;;;;;;;17.08;9.27;;;20.40;99.90;;;;;;5056060;28;20041;-81
2023/06/21 07:37:51;;;;;;;13.57;8.65;;;20.40;99.90;;;;;;5055867;28;20044;-81
2023/06/21 07:40:18;;;;;;;14.23;8.00;;;20.50;99.90;;;;;;5072208;28;20037;-81
2023/06/21 07:42:45;;;;;;;11.73;7.28;;;20.60;99.90;;;;;;5053174;28;20028;-81
2023/06/21 07:45:11;;;;;;;13.15;8.07;;;20.70;99.90;;;;;;5035484;28;20121;-81
2023/06/21 07:47:39;;;;;;;12.77;7.82;;;20.80;99.90;;;;;;5036149;28;20048;-81
2023/06/21 07:50:07;;;;;;;12.27;7.40;;;20.90;99.90;;;;;;5056496;28;20044;-81
2023/06/21 07:52:33;;;;;;;9.77;6.22;;;20.90;99.90;;;;;;5071255;28;20048;-80
2023/06/21 07:55:00;;;;;;;10.18;6.78;;;21.00;99.90;;;;;;5039653;28;20495;-81
2023/06/21 07:57:27;;;;;;;10.57;6.60;;;21.10;99.90;;;;;;5088601;28;20032;-82
2023/06/21 07:59:55;;;;;;;12.35;6.05;;;21.20;99.90;;;;;;5039438;28;20082;-81
2023/06/21 08:02:23;;;;;;;9.55;5.80;;;21.30;99.90;;;;;;5071961;28;20037;-81
2023/06/21 08:04:49;;;;;;;9.48;6.25;;;21.30;99.90;;;;;;5039488;28;20499;-81
2023/06/21 08:07:16;;;;;;;10.10;6.00;;;21.40;99.90;;;;;;5055419;28;20044;-81
2023/06/21 08:09:43;;;;;;;10.00;6.00;;;21.40;99.90;;;;;;5055828;28;20102;-81
2023/06/21 08:12:09;;;;;;;11.88;6.50;;;21.50;99.90;;;;;;5039602;28;20037;-81
2023/06/21 08:14:36;;;;;;;9.75;5.88;;;21.50;99.90;;;;;;5071752;28;20040;-81
2023/06/21 08:17:03;;;;;;;8.77;5.78;;;21.70;99.90;;;;;;5039354;28;20032;-81
2023/06/21 08:19:30;;;;;;;9.45;6.30;;;21.80;99.90;;;;;;5039350;28;20098;-81
2023/06/21 08:21:56;;;;;;;8.98;5.60;;;21.70;99.90;;;;;;5039338;28;20048;-81
2023/06/21 08:24:26;;;;;;;8.85;5.82;;;21.70;99.90;;;;;;5039038;28;20032;-82
2023/06/21 08:26:53;;;;;;;14.00;11.27;;;21.70;99.90;;;;;;5072249;28;20094;-81
2023/06/21 08:29:20;;;;;;;12.95;7.43;;;21.80;99.90;;;;;;5039321;28;20480;-82
2023/06/21 08:31:47;;;;;;;9.63;6.22;;;21.90;99.90;;;;;;5071846;28;20059;-81
2023/06/21 08:34:14;;;;;;;9.50;5.38;;;22.00;99.90;;;;;;5071405;28;20048;-81
2023/06/21 08:36:40;;;;;;;8.48;5.05;;;22.00;99.90;;;;;;5050557;28;20041;-82
2023/06/21 08:39:07;;;;;;;11.23;5.28;;;21.90;99.90;;;;;;5088577;28;20044;-82
2023/06/21 08:41:36;;;;;;;8.65;5.65;;;22.00;99.90;;;;;;5039286;28;20424;-81
2023/06/21 08:44:03;;;;;;;12.15;5.97;;;22.00;99.90;;;;;;5102348;28;20155;-81
2023/06/21 08:46:33;;;;;;;10.80;6.32;;;22.20;99.90;;;;;;5071848;28;20127;-81
2023/06/21 08:49:03;;;;;;;10.95;6.05;;;22.20;99.90;;;;;;5071899;28;20041;-82
2023/06/21 08:51:30;;;;;;;8.77;5.45;;;22.20;99.90;;;;;;5071851;28;20045;-82
2023/06/21 08:54:11;;;;;;;11.68;5.43;;;22.30;99.90;;;;;;5072182;28;20049;-82
2023/06/21 08:56:46;;;;;;;9.88;5.90;;;22.40;99.90;;;;;;5091784;28;20041;-83
2023/06/21 08:59:41;;;;;;;9.75;5.65;;;22.50;99.90;;;;;;5091617;28;20040;-82
2023/06/21 09:02:32;;;;;;;7.60;4.67;;;22.30;99.90;;;;;;5081665;28;20047;-82
2023/06/21 09:05:04;;;;;;;10.07;5.53;;;22.40;99.90;;;;;;5075064;28;20490;-82
2023/06/21 09:07:33;;;;;;;10.38;4.80;;;22.50;99.90;;;;;;5075041;28;20085;-83
2023/06/21 09:10:01;;;;;;;9.23;5.90;;;22.50;99.90;;;;;;5058836;28;20519;-82
2023/06/21 09:12:30;;;;;;;8.85;5.30;;;22.50;99.90;;;;;;5075520;28;20044;-82
2023/06/21 09:14:57;;;;;;;7.05;5.00;;;22.50;99.90;;;;;;5075179;28;20409;-82
2023/06/21 09:17:25;;;;;;;10.05;5.18;;;22.60;99.90;;;;;;5054852;28;20048;-82
2023/06/21 09:19:52;;;;;;;9.63;4.95;;;22.70;99.90;;;;;;5075117;28;20539;-82
2023/06/21 09:22:24;;;;;;;7.57;5.05;;;22.80;99.90;;;;;;5058376;28;20048;-82
2023/06/21 09:24:51;;;;;;;8.10;4.75;;;23.00;99.90;;;;;;5108131;28;20129;-82
2023/06/21 09:27:18;;;;;;;9.52;5.28;;;23.20;99.90;;;;;;5042132;28;20036;-82
2023/06/21 09:29:45;;;;;;;7.75;4.82;;;23.30;99.90;;;;;;5041807;28;20040;-82
2023/06/21 09:32:12;;;;;;;10.90;6.32;;;23.40;99.90;;;;;;5058105;28;20566;-82
2023/06/21 09:34:38;;;;;;;9.00;4.82;;;23.30;99.90;;;;;;5057792;28;20055;-82
2023/06/21 09:37:05;;;;;;;8.10;4.70;;;23.40;99.90;;;;;;5057878;28;20524;-81
2023/06/21 09:39:32;;;;;;;7.75;4.75;;;23.50;99.90;;;;;;5057970;28;20040;-82
2023/06/21 09:41:58;;;;;;;8.65;5.00;;;23.50;99.90;;;;;;5041638;28;20051;-82
2023/06/21 09:44:25;;;;;;;6.78;4.50;;;23.50;99.90;;;;;;5041818;28;20043;-82
2023/06/21 09:46:58;;;;;;;7.75;3.83;;;23.60;99.90;;;;;;5090729;28;20045;-82
2023/06/21 09:49:29;;;;;;;5.55;3.88;;;23.80;99.90;;;;;;5074224;28;20487;-82
2023/06/21 09:51:56;;;;;;;8.93;4.65;;;23.90;99.90;;;;;;5074101;28;20040;-82
2023/06/21 09:54:22;;;;;;;8.05;4.32;;;24.10;99.90;;;;;;5074066;28;20067;-82
2023/06/21 09:56:49;;;;;;;7.97;4.40;;;24.20;99.90;;;;;;5052098;28;20041;-83
2023/06/21 09:59:19;;;;;;;7.43;4.22;;;24.20;99.90;;;;;;5057632;28;20075;-81
2023/06/21 10:01:50;;;;;;;7.90;4.93;;;24.30;99.90;;;;;;5107099;28;20040;-82
2023/06/21 10:04:18;;;;;;;10.40;5.50;;;24.40;99.90;;;;;;5107163;28;20546;-82
2023/06/21 10:06:51;;;;;;;8.98;5.20;;;24.50;99.90;;;;;;5056181;28;20048;-83
2023/06/21 10:09:18;;;;;;;8.27;4.53;;;24.70;99.90;;;;;;5074004;28;20735;-83
2023/06/21 10:11:46;;;;;;;8.13;4.40;;;24.90;99.90;;;;;;5090379;28;20044;-83
2023/06/21 10:14:23;;;;;;;7.93;4.47;;;24.80;99.90;;;;;;5074135;28;20040;-83
2023/06/21 10:16:52;;;;;;;7.75;4.57;;;24.60;99.90;;;;;;5066146;28;20123;-82
2023/06/21 10:19:32;;;;;;;7.45;3.78;;;24.50;99.90;;;;;;5106747;28;20477;-84
2023/06/21 10:22:07;;;;;;;7.60;3.38;;;24.60;99.90;;;;;;5057910;28;20052;-82
2023/06/21 10:24:49;;;;;;;;;;;24.60;99.90;;;;;;5074051;28;20405;-83
2023/06/21 10:27:18;;;;;;;8.45;3.17;;;24.80;99.90;;;;;;5073464;28;19923;-82
2023/06/21 10:29:52;;;;;;;5.30;3.13;;;24.70;99.90;;;;;;5040916;28;20044;-82
2023/06/21 10:32:21;;;;;;;5.30;2.77;;;24.60;99.90;;;;;;5106856;28;20178;-82
2023/06/21 10:35:00;;;;;;;6.95;3.28;;;24.50;99.90;;;;;;5106651;28;20048;-83
2023/06/21 10:37:36;;;;;;;7.05;3.90;;;24.50;99.90;;;;;;5073392;28;20036;-82
2023/06/21 10:40:06;;;;;;;5.93;3.20;;;24.30;99.90;;;;;;5072853;28;20037;-83
2023/06/21 10:42:33;;;;;;;5.93;3.60;;;24.50;99.90;;;;;;5106360;28;20404;-82
2023/06/21 10:45:00;;;;;;;8.32;3.22;;;24.40;99.90;;;;;;5056667;28;20048;-83
2023/06/21 10:47:28;;;;;;;5.05;3.17;;;24.50;99.90;;;;;;5040556;28;20036;-83
2023/06/21 10:49:58;;;;;;;4.80;2.67;;;24.50;99.90;;;;;;5040230;28;20051;-82
2023/06/21 10:52:30;;;;;;;5.30;2.83;;;24.50;99.90;;;;;;5106220;28;20101;-84
2023/06/21 10:54:58;;;;;;;5.00;2.90;;;24.80;99.90;;;;;;5072667;28;20041;-84
2023/06/21 10:57:30;;;;;;;4.60;2.95;;;24.70;99.90;;;;;;5056773;28;20064;-82
2023/06/21 11:00:08;;;;;;;5.03;2.30;;;24.80;99.90;;;;;;5057480;28;20051;-82
2023/06/21 11:02:35;;;;;;;5.38;2.60;;;25.20;99.90;;;;;;5073398;28;20040;-83
2023/06/21 11:05:22;;;;;;;5.32;2.60;;;25.20;99.90;;;;;;5105982;28;20040;-84
2023/06/21 11:08:01;;;;;;;5.75;2.40;;;25.30;99.90;;;;;;5052721;28;20482;-83
2023/06/21 11:10:43;;;;;;;4.50;2.20;;;25.40;99.90;;;;;;5069072;28;20068;-84
2023/06/21 11:13:10;;;;;;;3.83;2.25;;;25.60;99.90;;;;;;5053111;28;20033;-83
2023/06/21 11:15:39;;;;;;;5.18;2.70;;;25.70;99.90;;;;;;5036403;28;20128;-84
2023/06/21 11:18:08;;;;;;;6.60;2.25;;;25.70;99.90;;;;;;5076734;28;20051;-84
2023/06/21 11:20:52;;;;;;;5.43;2.40;;;25.60;99.90;;;;;;5069154;28;20557;-84
2023/06/21 11:23:21;;;;;;;5.45;2.50;;;25.30;99.90;;;;;;5036644;28;20128;-83
2023/06/21 11:25:53;;;;;;;5.00;2.80;;;25.20;99.90;;;;;;5036597;28;20128;-83
2023/06/21 11:28:19;;;;;;;6.65;2.70;;;25.00;99.90;;;;;;5058943;28;20043;-84
2023/06/21 11:31:07;;;;;;;3.72;2.22;;;25.10;99.90;;;;;;5072303;28;20036;-83
2023/06/21 11:33:59;;;;;;;4.50;2.33;;;25.20;99.90;;;;;;5072596;28;20413;-83
2023/06/21 11:36:28;;;;;;;6.18;2.83;;;25.10;99.90;;;;;;5089195;28;20484;-83
2023/06/21 11:39:18;;;;;;;4.72;2.70;;;24.90;99.90;;;;;;5056008;28;20089;-83
2023/06/21 11:41:45;;;;;;;3.83;2.15;;;25.00;99.90;;;;;;5072342;28;20029;-83
2023/06/21 11:44:26;;;;;;;4.47;2.40;;;25.00;99.90;;;;;;5072549;28;20090;-83
2023/06/21 11:47:17;;;;;;;4.70;2.30;;;25.20;99.90;;;;;;5039867;28;20122;-83
2023/06/21 11:50:13;;;;;;;5.43;2.22;;;25.30;99.90;;;;;;5055987;28;20485;-83
2023/06/21 11:52:40;;;;;;;5.18;2.38;;;25.40;99.90;;;;;;5072788;28;20131;-83
2023/06/21 11:55:14;;;;;;;4.38;2.20;;;25.50;99.90;;;;;;5055841;28;20152;-82
2023/06/21 11:57:47;;;;;;;4.72;2.33;;;25.10;99.90;;;;;;5062099;28;20075;-83
2023/06/21 12:00:14;;;;;;;3.85;2.03;;;25.00;99.90;;;;;;5048356;28;20033;-83
2023/06/21 12:02:40;;;;;;;3.75;1.77;;;24.90;99.90;;;;;;5071967;28;20116;-83
2023/06/21 12:05:07;;;;;;;3.28;1.92;;;25.10;99.90;;;;;;5056016;28;20029;-83
2023/06/21 12:07:35;;;;;;;3.80;1.90;;;25.00;99.90;;;;;;5039623;28;20041;-83
2023/06/21 12:10:02;;;;;;;3.50;1.85;;;25.10;99.90;;;;;;5055805;28;20053;-83
2023/06/21 12:12:29;;;;;;;3.20;1.45;;;25.10;99.90;;;;;;5055546;28;20475;-82
2023/06/21 12:14:58;;;;;;;3.40;1.70;;;25.10;99.90;;;;;;5055871;28;20044;-82
2023/06/21 12:17:25;;;;;;;4.22;1.55;;;25.40;99.90;;;;;;5035958;28;20060;-82
2023/06/21 12:19:52;;;;;;;3.63;1.67;;;25.70;99.90;;;;;;5038398;28;20040;-83
2023/06/21 12:22:21;;;;;;;3.22;1.60;;;25.90;99.90;;;;;;5046452;28;20100;-82
2023/06/21 12:25:16;;;;;;;4.18;2.20;;;26.10;99.90;;;;;;5062664;28;20494;-83
2023/06/21 12:27:56;;;;;;;3.22;1.55;;;25.90;99.90;;;;;;5095177;28;20048;-85
2023/06/21 12:30:25;;;;;;;3.00;1.63;;;25.90;99.90;;;;;;5059534;28;20044;-86
2023/06/21 12:32:55;;;;;;;3.40;1.45;;;26.20;99.90;;;;;;5076243;28;20051;-86
2023/06/21 12:35:22;;;;;;;3.83;1.60;;;26.30;99.90;;;;;;5060441;28;20064;-86
2023/06/21 12:37:49;;;;;;;7.32;2.03;;;26.40;99.90;;;;;;5062745;28;20779;-85
2023/06/21 12:40:19;;;;;;;2.90;1.40;;;26.50;99.70;;;;;;5043537;28;20040;-87
2023/06/21 12:42:46;;;;;;;3.50;1.75;;;26.70;99.90;;;;;;5060393;28;20412;-86
2023/06/21 12:45:21;;;;;;;3.28;1.40;;;26.70;99.90;;;;;;5109430;28;20043;-86
2023/06/21 12:47:49;;;;;;;4.57;1.47;;;26.80;99.90;;;;;;5068345;28;20037;-87